Time;durP1;ratioP1;P1;durP2;ratioP2;P2;SDS_P1;SDS_P2;PMS_P1;PMS_P2;Temp;Humidity;BMP_temperature;BMP_pressure;BME280_temperature;BME280_humidity;BME280_pressure;Samples;Min_cycle;Max_cycle;Signal;HPM_P1;HPM_P2
2024/01/21 00:02:13;;;;;;;8.50;4.60;;;;;;;-1.73;72.66;97879.09;108666;1266;200721;-79
2024/01/21 00:04:45;;;;;;;10.70;5.00;;;;;;;-1.75;72.69;97883.10;108785;1272;22539;-79
2024/01/21 00:07:27;;;;;;;9.10;4.40;;;;;;;-1.76;73.13;97882.70;108803;1266;25597;-79
2024/01/21 00:10:01;;;;;;;9.80;4.40;;;;;;;-1.77;73.07;97879.54;108814;1273;22805;-79
2024/01/21 00:12:36;;;;;;;13.60;5.40;;;;;;;-1.80;73.75;97884.16;108911;1272;22529;-79
2024/01/21 00:15:16;;;;;;;9.90;3.70;;;;;;;-1.81;74.11;97881.39;108826;1273;25294;-79
2024/01/21 00:17:48;;;;;;;10.10;5.40;;;;;;;-1.81;74.46;97885.15;108830;1266;22999;-79
2024/01/21 00:20:30;;;;;;;5.90;3.00;;;;;;;-1.82;74.59;97888.40;108816;1273;22551;-79
2024/01/21 00:23:02;;;;;;;9.70;3.70;;;;;;;-1.83;75.02;97884.48;108855;1273;22605;-79
2024/01/21 00:25:34;;;;;;;8.80;4.60;;;;;;;-1.84;75.71;97889.91;108802;1273;23326;-79
2024/01/21 00:28:08;;;;;;;11.10;4.80;;;;;;;-1.84;75.76;97888.91;108783;1273;24202;-79
2024/01/21 00:30:42;;;;;;;7.70;3.70;;;;;;;-1.85;76.23;97893.75;108803;1269;24195;-79
2024/01/21 00:33:20;;;;;;;7.80;4.80;;;;;;;-1.86;76.72;97897.65;108803;1273;22592;-79
2024/01/21 00:35:52;;;;;;;12.50;4.60;;;;;;;-1.88;77.21;97902.41;108787;1273;23797;-79
2024/01/21 00:38:23;;;;;;;11.00;5.10;;;;;;;-1.91;77.57;97908.07;108773;1269;22514;-79
2024/01/21 00:40:55;;;;;;;7.90;4.30;;;;;;;-1.93;77.98;97909.35;108770;1273;25424;-79
2024/01/21 00:43:29;;;;;;;14.80;5.30;;;;;;;-1.97;78.66;97910.27;108842;1266;25132;-79
2024/01/21 00:46:04;;;;;;;10.00;4.80;;;;;;;-2.01;78.88;97908.94;108785;1268;24219;-79
2024/01/21 00:48:40;;;;;;;11.90;5.30;;;;;;;-2.02;79.35;97918.49;108783;1273;23265;-79
2024/01/21 00:51:14;;;;;;;10.60;5.60;;;;;;;-2.04;80.05;97917.30;108774;1272;24219;-79
2024/01/21 00:53:46;;;;;;;9.10;4.00;;;;;;;-2.07;80.87;97920.92;108831;1268;23800;-79
2024/01/21 00:56:20;;;;;;;15.10;5.00;;;;;;;-2.11;81.46;97917.84;108823;1257;22511;-79
2024/01/21 00:58:52;;;;;;;8.00;4.30;;;;;;;-2.13;81.72;97922.08;108815;1269;22516;-79
2024/01/21 01:01:26;;;;;;;7.80;4.70;;;;;;;-2.14;82.22;97926.89;108803;1272;22669;-79
2024/01/21 01:04:00;;;;;;;8.70;5.00;;;;;;;-2.18;82.62;97923.79;108810;1266;22529;-79
2024/01/21 01:06:34;;;;;;;7.60;3.80;;;;;;;-2.19;83.87;97923.80;108788;1250;22531;-79
2024/01/21 01:09:08;;;;;;;7.70;3.90;;;;;;;-2.22;84.47;97920.42;108785;1266;25298;-79
2024/01/21 01:11:43;;;;;;;11.90;5.40;;;;;;;-2.24;84.96;97923.45;108793;1273;24016;-79
2024/01/21 01:14:14;;;;;;;10.20;5.30;;;;;;;-2.26;85.62;97919.86;108778;1273;24060;-79
2024/01/21 01:16:48;;;;;;;10.40;5.00;;;;;;;-2.27;86.01;97929.98;108826;1266;24192;-79
2024/01/21 01:19:23;;;;;;;13.00;5.50;;;;;;;-2.29;86.07;97931.77;108759;1266;25411;-79
2024/01/21 01:21:54;;;;;;;8.80;4.90;;;;;;;-2.29;86.42;97934.02;108880;1266;26520;-79
2024/01/21 01:24:30;;;;;;;9.90;5.50;;;;;;;-2.30;86.92;97931.34;108819;1272;22536;-79
2024/01/21 01:27:04;;;;;;;10.10;5.50;;;;;;;-2.30;87.37;97944.71;108807;1266;22607;-80
2024/01/21 01:29:36;;;;;;;10.20;4.90;;;;;;;-2.31;87.84;97945.13;108788;1262;22977;-79
2024/01/21 01:32:08;;;;;;;6.40;4.10;;;;;;;-2.31;87.63;97946.40;108766;1273;22517;-79
2024/01/21 01:34:41;;;;;;;8.60;4.90;;;;;;;-2.31;87.81;97949.16;108741;1263;22520;-80
2024/01/21 01:37:14;;;;;;;9.20;5.10;;;;;;;-2.30;87.99;97942.86;108790;1272;23737;-80
2024/01/21 01:39:46;;;;;;;8.80;5.60;;;;;;;-2.29;87.88;97946.69;108707;1266;22599;-80
2024/01/21 01:42:17;;;;;;;11.60;5.60;;;;;;;-2.30;88.68;97947.44;108765;1251;22513;-79
2024/01/21 01:44:51;;;;;;;7.40;4.20;;;;;;;-2.29;88.41;97952.08;108833;1266;25458;-80
2024/01/21 01:47:22;;;;;;;12.30;5.80;;;;;;;-2.27;88.48;97944.92;108809;1272;22539;-80
2024/01/21 01:49:57;;;;;;;10.50;4.90;;;;;;;-2.27;88.68;97947.46;109050;1266;24205;-79
2024/01/21 01:52:30;;;;;;;11.80;5.50;;;;;;;-2.27;88.21;97954.92;108926;1269;22524;-79
2024/01/21 01:55:02;;;;;;;12.40;6.90;;;;;;;-2.27;88.12;97953.38;108868;1272;22510;-79
2024/01/21 01:57:37;;;;;;;11.90;6.50;;;;;;;-2.26;88.34;97959.11;108905;1273;22528;-79
2024/01/21 02:00:13;;;;;;;9.80;4.20;;;;;;;-2.25;88.35;97957.73;108784;1267;22535;-79
2024/01/21 02:02:44;;;;;;;13.40;4.90;;;;;;;-2.25;88.70;97958.31;108804;1273;22996;-79
2024/01/21 02:05:24;;;;;;;12.00;5.30;;;;;;;-2.25;89.06;97961.14;108790;1272;24209;-79
2024/01/21 02:07:55;;;;;;;10.90;5.40;;;;;;;-2.25;89.01;97959.91;108808;1273;22517;-79
2024/01/21 02:10:30;;;;;;;8.60;5.00;;;;;;;-2.26;89.13;97955.71;108782;1273;22599;-79
2024/01/21 02:13:15;;;;;;;8.90;4.50;;;;;;;-2.28;89.32;97952.23;108728;1266;22629;-80
2024/01/21 02:15:47;;;;;;;11.20;6.20;;;;;;;-2.26;89.78;97943.39;108797;1272;23888;-79
2024/01/21 02:18:21;;;;;;;11.70;6.30;;;;;;;-2.27;90.21;97947.10;108813;1249;22523;-80
2024/01/21 02:20:52;;;;;;;13.30;6.80;;;;;;;-2.25;90.20;97948.17;108789;1272;22517;-80
2024/01/21 02:23:23;;;;;;;9.90;4.50;;;;;;;-2.24;90.05;97959.63;108782;1272;25307;-79
2024/01/21 02:25:55;;;;;;;12.40;6.20;;;;;;;-2.22;90.11;97957.84;108777;1269;22520;-79
2024/01/21 02:28:26;;;;;;;10.70;5.50;;;;;;;-2.20;90.00;97963.70;108805;1272;22919;-80
2024/01/21 02:31:01;;;;;;;11.30;5.80;;;;;;;-2.18;90.04;97969.92;108800;1266;22532;-80
2024/01/21 02:33:32;;;;;;;8.10;3.90;;;;;;;-2.16;90.15;97966.42;108865;1273;25454;-79
2024/01/21 02:36:06;;;;;;;11.30;5.10;;;;;;;-2.14;90.18;97964.42;108786;1265;23987;-80
2024/01/21 02:38:38;;;;;;;11.20;5.30;;;;;;;-2.13;90.41;97968.25;108809;1272;23730;-80
2024/01/21 02:41:12;;;;;;;8.40;4.40;;;;;;;-2.10;90.47;97977.56;108798;1266;23797;-80
2024/01/21 02:43:43;;;;;;;12.40;6.50;;;;;;;-2.08;90.90;97977.89;108795;1266;25294;-80
2024/01/21 02:46:17;;;;;;;14.50;4.80;;;;;;;-2.05;90.68;97982.55;108830;1273;22518;-80
2024/01/21 02:48:49;;;;;;;10.80;6.00;;;;;;;-2.02;90.81;97982.02;108821;1272;25424;-80
2024/01/21 02:51:21;;;;;;;9.40;4.10;;;;;;;-1.99;90.68;97979.16;108789;1273;22528;-80
2024/01/21 02:53:56;;;;;;;10.90;5.50;;;;;;;-1.97;90.74;97985.80;108845;1273;24219;-80
2024/01/21 02:56:30;;;;;;;11.50;5.90;;;;;;;-1.95;90.59;97991.00;108804;1266;25395;-80
2024/01/21 02:59:05;;;;;;;9.30;5.30;;;;;;;-1.93;90.78;97989.16;108782;1269;22535;-80
2024/01/21 03:01:37;;;;;;;11.10;5.60;;;;;;;-1.90;90.48;97986.79;108780;1266;22530;-79
2024/01/21 03:04:11;;;;;;;11.10;4.80;;;;;;;-1.87;90.54;97992.88;108802;1266;25281;-79
2024/01/21 03:06:43;;;;;;;11.20;4.90;;;;;;;-1.85;90.39;97987.96;108837;1273;24189;-80
2024/01/21 03:09:19;;;;;;;8.80;4.50;;;;;;;-1.84;90.54;97984.74;108780;1249;22554;-79
2024/01/21 03:11:50;;;;;;;8.30;4.70;;;;;;;-1.82;90.57;97981.65;108795;1267;22522;-80
2024/01/21 03:14:25;;;;;;;12.50;6.00;;;;;;;-1.81;90.38;97985.83;108806;1269;26728;-80
2024/01/21 03:16:59;;;;;;;13.00;5.90;;;;;;;-1.80;90.16;97990.77;108825;1266;25364;-79
2024/01/21 03:19:31;;;;;;;12.00;6.30;;;;;;;-1.78;89.91;97991.57;108786;1257;25284;-80
2024/01/21 03:22:05;;;;;;;10.80;5.60;;;;;;;-1.76;89.88;97995.23;108805;1269;25113;-79
2024/01/21 03:24:36;;;;;;;10.40;6.10;;;;;;;-1.76;89.91;97997.05;108811;1273;22718;-79
2024/01/21 03:27:11;;;;;;;10.90;6.40;;;;;;;-1.75;89.89;97997.51;108793;1273;22986;-80
2024/01/21 03:29:45;;;;;;;13.80;6.70;;;;;;;-1.74;89.90;98004.61;108782;1265;24238;-79
2024/01/21 03:32:22;;;;;;;11.20;5.70;;;;;;;-1.72;89.73;98006.92;108803;1273;26602;-79
2024/01/21 03:34:58;;;;;;;13.70;5.90;;;;;;;-1.73;89.59;98007.51;108824;1273;25427;-79
2024/01/21 03:37:29;;;;;;;14.00;6.30;;;;;;;-1.73;89.59;98011.69;108807;1267;24208;-79
2024/01/21 03:40:05;;;;;;;10.70;4.90;;;;;;;-1.73;89.60;98010.98;108794;1269;22524;-80
2024/01/21 03:42:39;;;;;;;13.10;7.20;;;;;;;-1.73;89.68;98017.38;108815;1273;22566;-80
2024/01/21 03:45:12;;;;;;;11.30;6.60;;;;;;;-1.73;89.40;98017.02;108809;1273;22518;-80
2024/01/21 03:47:44;;;;;;;11.00;6.10;;;;;;;-1.72;89.40;98018.84;108807;1273;22513;-80
2024/01/21 03:50:20;;;;;;;15.40;6.90;;;;;;;-1.70;89.27;98020.65;108736;1266;22522;-80
2024/01/21 03:52:56;;;;;;;13.20;5.90;;;;;;;-1.66;89.38;98022.58;108822;1273;22463;-80
2024/01/21 03:55:29;;;;;;;11.90;5.50;;;;;;;-1.62;89.40;98018.25;108852;1269;22533;-80
2024/01/21 03:58:05;;;;;;;14.80;6.40;;;;;;;-1.62;89.08;98010.64;108825;1269;22608;-80
2024/01/21 04:00:36;;;;;;;11.00;6.10;;;;;;;-1.63;89.11;98006.55;108753;1272;25418;-80
2024/01/21 04:03:12;;;;;;;15.50;6.70;;;;;;;-1.64;89.15;98003.76;108799;1267;22574;-80
2024/01/21 04:05:46;;;;;;;12.50;6.30;;;;;;;-1.66;88.87;98009.64;108810;1273;22627;-79
2024/01/21 04:08:20;;;;;;;13.40;6.70;;;;;;;-1.66;89.15;98010.68;108821;1273;25421;-79
2024/01/21 04:10:54;;;;;;;10.70;6.20;;;;;;;-1.66;88.76;98014.33;108818;1266;22513;-80
2024/01/21 04:13:30;;;;;;;14.20;6.80;;;;;;;-1.66;88.85;98017.15;108840;1249;22522;-80
2024/01/21 04:16:06;;;;;;;12.40;5.60;;;;;;;-1.65;88.88;98017.25;108778;1273;22538;-79
2024/01/21 04:18:40;;;;;;;12.70;5.70;;;;;;;-1.66;88.78;98016.99;108784;1266;22516;-80
2024/01/21 04:21:12;;;;;;;12.90;6.60;;;;;;;-1.66;88.86;98019.27;108796;1273;22650;-79
2024/01/21 04:23:46;;;;;;;14.50;7.10;;;;;;;-1.67;89.10;98013.10;108773;1266;22525;-80
2024/01/21 04:26:19;;;;;;;14.70;6.70;;;;;;;-1.66;88.76;98015.23;108789;1273;22521;-79
2024/01/21 04:28:51;;;;;;;12.20;6.30;;;;;;;-1.67;88.93;98014.98;108776;1273;22604;-80
2024/01/21 04:31:25;;;;;;;11.60;5.30;;;;;;;-1.66;88.97;98018.75;108743;1270;25181;-80
2024/01/21 04:33:56;;;;;;;15.30;6.10;;;;;;;-1.66;88.98;98021.61;108799;1273;22550;-80
2024/01/21 04:36:29;;;;;;;12.80;5.70;;;;;;;-1.65;88.97;98018.26;108809;1272;22537;-80
2024/01/21 04:39:03;;;;;;;10.70;5.00;;;;;;;-1.64;88.84;98019.19;108812;1269;22524;-80
2024/01/21 04:41:38;;;;;;;12.60;5.50;;;;;;;-1.64;89.01;98022.48;108792;1272;22511;-80
2024/01/21 04:44:09;;;;;;;9.00;5.20;;;;;;;-1.63;89.18;98032.10;108778;1272;22545;-80
2024/01/21 04:46:41;;;;;;;12.20;5.80;;;;;;;-1.63;89.02;98029.98;108809;1272;25400;-80
2024/01/21 04:49:13;;;;;;;11.30;5.70;;;;;;;-1.63;89.09;98035.14;108819;1269;23805;-80
2024/01/21 04:51:47;;;;;;;14.00;6.00;;;;;;;-1.62;89.03;98034.42;108799;1269;24006;-80
2024/01/21 04:54:21;;;;;;;16.10;6.20;;;;;;;-1.61;89.02;98038.80;108797;1272;22532;-80
2024/01/21 04:56:52;;;;;;;12.40;6.30;;;;;;;-1.61;89.18;98037.58;108809;1273;22521;-80
2024/01/21 04:59:25;;;;;;;15.70;6.50;;;;;;;-1.60;88.97;98042.48;108788;1269;22570;-80
2024/01/21 05:01:56;;;;;;;10.00;5.30;;;;;;;-1.58;89.01;98042.92;108796;1272;22518;-80
2024/01/21 05:04:28;;;;;;;10.80;5.30;;;;;;;-1.56;89.18;98041.20;108803;1266;22514;-80
2024/01/21 05:07:03;;;;;;;12.70;5.80;;;;;;;-1.55;89.11;98043.64;108815;1266;26552;-79
2024/01/21 05:09:38;;;;;;;13.90;5.60;;;;;;;-1.55;89.01;98040.14;108769;1272;24149;-80
2024/01/21 05:12:11;;;;;;;10.80;4.70;;;;;;;-1.55;88.91;98042.08;108799;1269;25062;-80
2024/01/21 05:14:46;;;;;;;9.40;5.30;;;;;;;-1.56;88.97;98047.20;108823;1272;22529;-80
2024/01/21 05:17:17;;;;;;;12.60;6.60;;;;;;;-1.56;89.07;98049.81;108844;1273;23761;-80
2024/01/21 05:19:50;;;;;;;12.70;5.20;;;;;;;-1.56;89.32;98050.52;108768;1273;25434;-80
2024/01/21 05:22:24;;;;;;;13.90;6.80;;;;;;;-1.56;89.24;98048.41;108824;1273;22636;-80
2024/01/21 05:24:57;;;;;;;10.50;5.10;;;;;;;-1.55;89.15;98049.72;108810;1273;22535;-80
2024/01/21 05:27:30;;;;;;;10.60;5.90;;;;;;;-1.54;89.23;98051.75;108807;1273;22516;-80
2024/01/21 05:30:08;;;;;;;12.90;6.10;;;;;;;-1.54;89.23;98053.93;108788;1269;22536;-80
2024/01/21 05:32:39;;;;;;;16.90;6.60;;;;;;;-1.54;89.41;98060.84;108825;1273;23983;-80
2024/01/21 05:35:13;;;;;;;15.50;6.40;;;;;;;-1.54;89.45;98060.66;108784;1266;24218;-80
2024/01/21 05:37:44;;;;;;;14.10;6.70;;;;;;;-1.52;89.35;98063.64;109103;1273;23003;-80
2024/01/21 05:40:20;;;;;;;16.50;6.40;;;;;;;-1.50;89.19;98070.03;109109;1271;22526;-80
2024/01/21 05:42:54;;;;;;;13.10;6.00;;;;;;;-1.49;89.08;98073.54;109083;1272;22516;-80
2024/01/21 05:45:27;;;;;;;14.60;7.10;;;;;;;-1.49;89.19;98074.94;109132;1269;22699;-80
2024/01/21 05:48:04;;;;;;;8.80;4.70;;;;;;;-1.49;89.11;98076.30;109102;1269;25398;-80
2024/01/21 05:50:35;;;;;;;14.80;6.50;;;;;;;-1.50;89.22;98079.88;109092;1273;22524;-80
2024/01/21 05:53:08;;;;;;;13.20;5.80;;;;;;;-1.51;89.10;98074.62;109114;1266;22639;-80
2024/01/21 05:55:39;;;;;;;16.00;4.60;;;;;;;-1.51;89.43;98078.63;109114;1273;22536;-80
2024/01/21 05:58:13;;;;;;;8.30;4.30;;;;;;;-1.52;89.20;98077.84;109107;1272;22524;-80
2024/01/21 06:00:44;;;;;;;16.80;5.70;;;;;;;-1.53;89.34;98068.88;109106;1272;22531;-80
2024/01/21 06:03:18;;;;;;;13.60;6.10;;;;;;;-1.52;89.31;98070.92;109126;1269;22516;-80
2024/01/21 06:05:51;;;;;;;12.40;6.70;;;;;;;-1.50;89.56;98067.33;109143;1272;22529;-80
2024/01/21 06:08:29;;;;;;;13.20;6.40;;;;;;;-1.46;89.28;98067.55;109123;1269;22613;-80
2024/01/21 06:11:03;;;;;;;20.40;7.70;;;;;;;-1.45;89.25;98066.79;109104;1266;22573;-80
2024/01/21 06:13:34;;;;;;;13.30;5.60;;;;;;;-1.44;89.40;98065.36;109130;1269;22529;-79
2024/01/21 06:16:18;;;;;;;18.60;7.30;;;;;;;-1.47;89.40;98065.83;109047;1273;22539;-80
2024/01/21 06:18:54;;;;;;;13.80;6.70;;;;;;;-1.48;89.42;98066.84;109135;1266;22631;-80
2024/01/21 06:21:25;;;;;;;14.50;7.90;;;;;;;-1.46;89.48;98060.39;109108;1273;22532;-79
2024/01/21 06:24:01;;;;;;;19.20;9.00;;;;;;;-1.42;89.33;98062.20;109142;1273;25653;-80
2024/01/21 06:26:37;;;;;;;17.50;8.80;;;;;;;-1.39;89.29;98062.70;109106;1273;22637;-79
2024/01/21 06:29:13;;;;;;;15.90;7.10;;;;;;;-1.36;89.26;98057.84;109139;1266;22560;-80
2024/01/21 06:31:44;;;;;;;16.80;6.80;;;;;;;-1.34;89.35;98056.27;109218;1269;22524;-79
2024/01/21 06:34:17;;;;;;;15.60;6.10;;;;;;;-1.35;89.44;98059.23;109106;1269;22537;-79
2024/01/21 06:36:48;;;;;;;12.90;5.60;;;;;;;-1.37;89.47;98065.16;109083;1266;22517;-79
2024/01/21 06:39:19;;;;;;;16.20;6.20;;;;;;;-1.39;89.57;98063.29;109069;1273;24213;-80
2024/01/21 06:41:53;;;;;;;17.90;6.90;;;;;;;-1.41;89.47;98064.22;109089;1272;22551;-80
2024/01/21 06:44:24;;;;;;;17.10;7.40;;;;;;;-1.42;89.76;98061.64;109071;1272;22594;-79
2024/01/21 06:46:56;;;;;;;11.20;5.50;;;;;;;-1.40;89.76;98063.51;109089;1272;22548;-80
2024/01/21 06:49:30;;;;;;;15.40;6.70;;;;;;;-1.37;89.97;98061.30;109070;1254;22634;-79
2024/01/21 06:52:07;;;;;;;12.90;6.10;;;;;;;-1.34;89.84;98058.90;109082;1272;22525;-79
2024/01/21 06:54:44;;;;;;;14.70;7.20;;;;;;;-1.34;89.79;98054.91;109119;1269;25269;-80
2024/01/21 06:57:15;;;;;;;16.40;6.10;;;;;;;-1.33;89.74;98047.52;109060;1272;26443;-80
2024/01/21 06:59:47;;;;;;;16.00;7.40;;;;;;;-1.32;89.54;98048.62;109109;1269;25271;-80
2024/01/21 07:02:22;;;;;;;17.20;6.20;;;;;;;-1.31;89.35;98048.64;109091;1272;22557;-80
2024/01/21 07:04:54;;;;;;;12.70;7.20;;;;;;;-1.30;89.28;98053.10;109121;1269;22527;-79
2024/01/21 07:07:25;;;;;;;9.50;4.70;;;;;;;-1.27;89.47;98055.50;109071;1269;22516;-80
2024/01/21 07:09:57;;;;;;;13.60;6.50;;;;;;;-1.23;89.55;98055.88;109047;1272;22556;-80
2024/01/21 07:12:33;;;;;;;15.10;7.80;;;;;;;-1.20;89.38;98059.45;109084;1273;22539;-80
2024/01/21 07:15:05;;;;;;;14.30;5.90;;;;;;;-1.17;89.33;98057.77;109074;1272;22584;-79
2024/01/21 07:17:36;;;;;;;11.90;5.90;;;;;;;-1.15;89.18;98065.46;109092;1267;22567;-80
2024/01/21 07:20:14;;;;;;;11.70;6.40;;;;;;;-1.08;89.15;98063.02;109084;1266;23902;-80
2024/01/21 07:22:46;;;;;;;11.80;5.60;;;;;;;-1.03;88.76;98068.52;109113;1272;24257;-79
2024/01/21 07:25:17;;;;;;;12.80;6.60;;;;;;;-1.04;88.73;98065.59;109079;1260;22537;-80
2024/01/21 07:27:50;;;;;;;11.20;6.30;;;;;;;-1.02;88.54;98067.86;109141;1272;25424;-79
2024/01/21 07:30:24;;;;;;;14.00;6.40;;;;;;;-0.99;88.44;98070.65;109078;1273;23887;-79
2024/01/21 07:32:59;;;;;;;11.40;6.20;;;;;;;-0.97;88.25;98075.60;109106;1272;23831;-80
2024/01/21 07:35:32;;;;;;;13.30;6.20;;;;;;;-0.95;88.38;98074.84;109110;1273;22555;-80
2024/01/21 07:38:04;;;;;;;12.80;5.40;;;;;;;-0.92;88.39;98069.71;109116;1273;22517;-80
2024/01/21 07:40:37;;;;;;;13.60;6.60;;;;;;;-0.91;88.14;98074.27;109110;1273;23915;-80
2024/01/21 07:43:13;;;;;;;12.50;6.00;;;;;;;-0.91;88.18;98074.20;109086;1266;22529;-80
2024/01/21 07:45:47;;;;;;;12.80;6.40;;;;;;;-0.90;88.05;98074.03;109089;1273;22626;-80
2024/01/21 07:48:18;;;;;;;13.60;6.10;;;;;;;-0.90;88.03;98073.45;109116;1273;22529;-80
2024/01/21 07:50:51;;;;;;;13.40;6.90;;;;;;;-0.89;88.03;98071.09;109068;1272;22516;-80
2024/01/21 07:53:25;;;;;;;12.90;7.00;;;;;;;-0.84;88.20;98067.93;109092;1272;22639;-80
2024/01/21 07:55:56;;;;;;;13.90;6.70;;;;;;;-0.77;88.17;98071.11;109088;1273;25249;-80
2024/01/21 07:58:28;;;;;;;14.60;7.20;;;;;;;-0.71;87.95;98069.55;109099;1272;22520;-80
2024/01/21 08:01:00;;;;;;;15.40;7.90;;;;;;;-0.64;88.37;98068.27;109095;1266;23948;-80
2024/01/21 08:03:36;;;;;;;14.80;7.30;;;;;;;-0.52;88.62;98067.45;109101;1269;26533;-79
2024/01/21 08:06:10;;;;;;;11.00;5.20;;;;;;;-0.43;88.28;98072.11;109073;1266;22629;-79
2024/01/21 08:08:41;;;;;;;15.30;7.80;;;;;;;-0.41;88.09;98074.61;109095;1269;26016;-79
2024/01/21 08:11:17;;;;;;;16.10;7.30;;;;;;;-0.41;88.21;98078.57;109070;1269;22541;-80
2024/01/21 08:13:50;;;;;;;14.40;7.00;;;;;;;-0.33;87.72;98078.99;109099;1272;22575;-80
2024/01/21 08:16:22;;;;;;;14.20;8.10;;;;;;;-0.24;87.68;98084.14;109120;1269;25519;-80
2024/01/21 08:19:01;;;;;;;17.80;9.00;;;;;;;-0.14;87.66;98082.98;109121;1272;22542;-80
2024/01/21 08:21:33;;;;;;;16.60;9.70;;;;;;;-0.12;87.67;98086.56;109134;1269;29297;-80
2024/01/21 08:24:06;;;;;;;15.20;8.20;;;;;;;-0.09;87.22;98082.52;109114;1273;22568;-81
2024/01/21 08:26:39;;;;;;;14.10;7.80;;;;;;;-0.12;86.97;98089.01;109128;1273;22800;-80
2024/01/21 08:29:13;;;;;;;14.00;8.20;;;;;;;-0.15;87.04;98090.86;109132;1272;24646;-82
2024/01/21 08:31:48;;;;;;;15.20;8.10;;;;;;;-0.15;86.73;98096.11;109095;1272;22534;-80
2024/01/21 08:34:19;;;;;;;15.40;7.80;;;;;;;-0.11;87.13;98098.77;109122;1269;22470;-80
2024/01/21 08:36:51;;;;;;;11.40;5.70;;;;;;;-0.00;86.78;98098.14;109092;1266;22706;-80
2024/01/21 08:39:22;;;;;;;13.50;7.20;;;;;;;0.05;86.88;98099.63;109059;1273;22536;-79
2024/01/21 08:41:56;;;;;;;11.70;6.20;;;;;;;-0.00;86.65;98096.05;109103;1272;22555;-80
2024/01/21 08:44:27;;;;;;;13.60;7.50;;;;;;;-0.01;86.47;98096.56;109103;1269;22530;-79
2024/01/21 08:47:01;;;;;;;12.80;6.70;;;;;;;0.07;86.66;98100.81;109167;1265;22546;-80
2024/01/21 08:49:34;;;;;;;11.60;7.20;;;;;;;0.16;86.46;98096.97;109060;1272;24328;-81
2024/01/21 08:52:06;;;;;;;13.90;7.50;;;;;;;0.24;86.45;98095.85;109073;1272;22539;-80
2024/01/21 08:54:39;;;;;;;13.40;7.50;;;;;;;0.32;86.40;98098.36;109168;1258;22513;-81
2024/01/21 08:57:16;;;;;;;13.20;6.50;;;;;;;0.35;86.02;98100.16;109097;1269;22544;-81
2024/01/21 08:59:52;;;;;;;12.10;5.80;;;;;;;0.39;85.99;98097.41;109099;1272;22521;-81
2024/01/21 09:02:27;;;;;;;10.40;5.50;;;;;;;0.45;86.02;98097.64;109094;1272;22530;-81
2024/01/21 09:04:58;;;;;;;13.10;6.30;;;;;;;0.51;86.10;98095.19;109123;1266;22544;-81
2024/01/21 09:07:37;;;;;;;10.10;5.40;;;;;;;0.54;85.78;98095.40;109161;1273;25310;-80
2024/01/21 09:10:13;;;;;;;11.00;5.80;;;;;;;0.54;85.76;98096.07;109090;1272;22543;-81
2024/01/21 09:12:45;;;;;;;10.70;7.00;;;;;;;0.54;85.75;98103.63;109150;1272;22552;-80
2024/01/21 09:15:21;;;;;;;8.30;4.60;;;;;;;0.53;85.43;98099.20;109171;1272;25415;-80
2024/01/21 09:17:55;;;;;;;8.30;4.10;;;;;;;0.45;85.03;98093.74;109131;1272;22508;-81
2024/01/21 09:20:29;;;;;;;12.20;5.20;;;;;;;0.38;84.57;98099.41;109131;1269;22621;-81
2024/01/21 09:23:05;;;;;;;11.30;5.80;;;;;;;0.38;84.52;98107.31;109127;1272;22583;-80
2024/01/21 09:25:42;;;;;;;11.40;5.50;;;;;;;0.41;84.84;98107.25;109123;1267;22563;-81
2024/01/21 09:28:18;;;;;;;11.90;6.30;;;;;;;0.50;84.94;98109.18;109092;1266;22528;-81
2024/01/21 09:30:50;;;;;;;12.30;6.10;;;;;;;0.55;84.85;98111.72;109130;1269;22542;-81
2024/01/21 09:33:21;;;;;;;9.70;5.30;;;;;;;0.62;84.95;98112.19;109100;1266;24209;-81
2024/01/21 09:35:54;;;;;;;12.40;6.20;;;;;;;0.72;84.87;98109.64;109148;1266;22515;-81
2024/01/21 09:38:27;;;;;;;10.20;5.40;;;;;;;0.78;84.87;98104.72;109121;1265;22712;-80
2024/01/21 09:41:06;;;;;;;8.40;5.20;;;;;;;0.82;84.65;98097.61;109107;1273;22528;-81
2024/01/21 09:43:44;;;;;;;10.10;5.50;;;;;;;0.90;84.54;98097.77;109144;1267;22535;-81
2024/01/21 09:46:19;;;;;;;10.80;6.20;;;;;;;0.92;84.70;98102.70;109101;1272;22587;-80
2024/01/21 09:48:54;;;;;;;13.20;6.90;;;;;;;0.98;84.54;98102.38;109097;1272;22520;-80
2024/01/21 09:51:28;;;;;;;9.90;5.40;;;;;;;1.04;84.40;98098.37;109137;1272;22531;-80
2024/01/21 09:54:04;;;;;;;11.20;6.40;;;;;;;1.01;84.13;98099.35;109097;1272;22702;-80
2024/01/21 09:56:38;;;;;;;8.80;4.40;;;;;;;1.07;84.17;98094.50;109124;1273;22602;-80
2024/01/21 09:59:13;;;;;;;13.00;6.10;;;;;;;1.09;84.07;98090.51;109047;1269;22572;-80
2024/01/21 10:01:49;;;;;;;13.00;6.40;;;;;;;1.10;83.73;98087.38;109115;1263;23571;-80
2024/01/21 10:04:22;;;;;;;13.20;6.90;;;;;;;1.13;83.53;98085.10;109173;1273;22521;-80
2024/01/21 10:06:58;;;;;;;10.40;5.60;;;;;;;1.31;84.23;98088.69;109110;1267;22554;-79
2024/01/21 10:09:30;;;;;;;10.00;4.90;;;;;;;1.55;84.00;98087.41;109146;1266;25423;-79
2024/01/21 10:12:12;;;;;;;13.90;6.80;;;;;;;1.59;83.39;98089.67;108742;1266;23180;-79
2024/01/21 10:14:49;;;;;;;11.30;4.90;;;;;;;1.64;83.13;98090.67;108851;1269;26460;-79
2024/01/21 10:17:33;;;;;;;9.40;5.20;;;;;;;1.68;82.98;98080.55;108774;1267;22781;-79
2024/01/21 10:20:10;;;;;;;10.50;5.70;;;;;;;1.79;83.06;98079.41;108759;1273;22543;-80
2024/01/21 10:22:44;;;;;;;8.90;5.60;;;;;;;1.93;82.87;98083.58;108756;1269;24224;-79
2024/01/21 10:25:21;;;;;;;9.30;5.00;;;;;;;2.05;82.86;98078.22;108756;1266;22528;-79
2024/01/21 10:27:59;;;;;;;7.10;4.10;;;;;;;2.26;82.97;98078.11;108824;1272;22539;-79
2024/01/21 10:30:34;;;;;;;7.60;4.70;;;;;;;2.37;82.32;98073.48;108764;1272;23758;-79
2024/01/21 10:33:13;;;;;;;7.20;4.50;;;;;;;2.41;82.24;98068.05;108890;1267;22604;-79
2024/01/21 10:35:49;;;;;;;8.00;4.60;;;;;;;2.59;82.16;98067.54;108765;1272;25319;-79
2024/01/21 10:38:29;;;;;;;8.10;4.70;;;;;;;2.66;81.68;98062.46;108786;1273;24193;-79
2024/01/21 10:41:05;;;;;;;9.00;4.70;;;;;;;2.69;81.43;98061.40;108784;1272;22514;-79
2024/01/21 10:43:41;;;;;;;8.80;5.00;;;;;;;2.91;81.79;98056.92;108807;1273;22556;-80
2024/01/21 10:46:16;;;;;;;7.30;4.20;;;;;;;3.21;81.82;98056.73;108815;1271;22531;-79
2024/01/21 10:48:53;;;;;;;9.20;4.30;;;;;;;3.33;81.16;98054.44;108815;1270;25710;-80
2024/01/21 10:51:27;;;;;;;8.80;4.70;;;;;;;3.53;81.19;98050.20;108756;1269;22535;-80
2024/01/21 10:54:04;;;;;;;7.80;3.90;;;;;;;3.96;81.71;98051.77;108855;1273;22555;-79
2024/01/21 10:56:41;;;;;;;9.10;4.40;;;;;;;4.35;81.16;98050.27;108796;1267;22681;-79
2024/01/21 10:59:21;;;;;;;4.80;3.50;;;;;;;4.49;80.57;98048.59;108881;1270;23830;-79
2024/01/21 11:01:53;;;;;;;9.30;4.10;;;;;;;4.59;79.83;98048.61;108863;1272;25410;-79
2024/01/21 11:04:25;;;;;;;8.60;4.40;;;;;;;4.54;78.87;98053.23;108773;1272;22659;-79
2024/01/21 11:07:05;;;;;;;8.70;4.50;;;;;;;4.50;78.57;98057.84;108825;1273;22593;-79
2024/01/21 11:09:43;;;;;;;7.30;3.80;;;;;;;4.59;78.80;98054.68;108788;1272;22527;-80
2024/01/21 11:12:19;;;;;;;8.00;4.00;;;;;;;4.86;78.50;98053.25;108752;1273;22548;-79
2024/01/21 11:14:53;;;;;;;10.60;5.20;;;;;;;5.04;77.88;98052.60;108806;1272;25425;-79
2024/01/21 11:17:26;;;;;;;11.40;6.70;;;;;;;4.89;75.86;98055.50;108782;1272;22684;-79
2024/01/21 11:20:02;;;;;;;14.60;7.80;;;;;;;4.49;73.99;98060.78;108665;1272;61073;-79
2024/01/21 11:22:42;;;;;;;14.20;7.30;;;;;;;4.23;73.45;98059.30;108792;1273;22541;-79
2024/01/21 11:25:40;;;;;;;12.90;7.50;;;;;;;4.05;73.16;98054.36;108662;1272;22535;-79
2024/01/21 11:28:34;;;;;;;18.40;11.10;;;;;;;3.93;73.18;98053.79;108775;1273;24129;-79
2024/01/21 11:31:13;;;;;;;19.10;12.30;;;;;;;3.78;72.93;98044.20;108763;1272;22891;-79
2024/01/21 11:34:04;;;;;;;21.90;11.60;;;;;;;3.68;73.68;98036.41;108800;1273;22528;-79
2024/01/21 11:36:43;;;;;;;19.00;11.70;;;;;;;3.67;73.70;98035.96;108772;1272;23925;-79
2024/01/21 11:39:27;;;;;;;21.30;12.80;;;;;;;3.62;73.59;98030.21;108825;1260;22503;-79
2024/01/21 11:42:00;;;;;;;22.70;14.20;;;;;;;3.60;74.12;98027.75;108798;1273;23815;-79
2024/01/21 11:44:39;;;;;;;23.40;13.80;;;;;;;3.80;75.03;98026.17;108859;1272;24210;-79
2024/01/21 11:47:14;;;;;;;20.50;13.70;;;;;;;3.95;75.28;98023.33;108812;1270;25440;-79
2024/01/21 11:49:49;;;;;;;20.40;13.00;;;;;;;4.18;75.85;98019.28;108868;1270;22990;-79
2024/01/21 11:52:23;;;;;;;21.20;11.40;;;;;;;4.41;76.03;98016.27;108836;1272;23916;-79
2024/01/21 11:55:02;;;;;;;17.40;11.10;;;;;;;4.61;75.96;98012.89;109003;1270;22539;-78